createdAt,value
2023-04-04T00:00:09.895Z,2.42
2023-04-04T00:02:36.535Z,3.25
2023-04-04T00:05:04.263Z,2.20
2023-04-04T00:07:30.889Z,2.50
2023-04-04T00:09:57.474Z,3.38
2023-04-04T00:12:26.600Z,4.55
2023-04-04T00:14:55.028Z,2.63
2023-04-04T00:17:21.538Z,3.03
2023-04-04T00:19:48.076Z,2.45
2023-04-04T00:22:14.675Z,2.95
2023-04-04T00:24:41.546Z,3.83
2023-04-04T00:27:08.083Z,4.50
2023-04-04T00:29:34.744Z,3.40
2023-04-04T00:32:01.373Z,3.60
2023-04-04T00:34:27.989Z,2.35
2023-04-04T00:36:54.566Z,2.83
2023-04-04T00:39:21.479Z,2.83
2023-04-04T00:41:51.125Z,3.55
2023-04-04T00:44:17.954Z,3.03
2023-04-04T00:46:44.858Z,3.65
2023-04-04T00:49:11.547Z,3.10
2023-04-04T00:51:38.159Z,4.03
2023-04-04T00:54:04.796Z,3.10
2023-04-04T00:56:33.130Z,3.63
2023-04-04T00:59:00.961Z,4.68
2023-04-04T01:01:27.634Z,3.17
2023-04-04T01:03:54.823Z,3.25
2023-04-04T01:06:21.523Z,2.92
2023-04-04T01:08:49.017Z,4.20
2023-04-04T01:11:16.726Z,4.22
2023-04-04T01:13:44.252Z,4.95
2023-04-04T01:16:10.899Z,4.07
2023-04-04T01:18:40.679Z,4.32
2023-04-04T01:21:11.368Z,4.65
2023-04-04T01:24:02.985Z,3.95
2023-04-04T01:26:30.105Z,5.88
2023-04-04T01:28:57.915Z,3.35
2023-04-04T01:31:33.282Z,5.25
2023-04-04T01:34:09.457Z,4.43
2023-04-04T01:36:46.287Z,3.75
2023-04-04T01:39:15.627Z,3.00
2023-04-04T01:41:43.305Z,5.15
2023-04-04T01:44:10.947Z,2.67
2023-04-04T01:46:37.463Z,3.80
2023-04-04T01:49:03.977Z,5.13
2023-04-04T01:51:31.010Z,3.08
2023-04-04T01:53:57.524Z,3.65
2023-04-04T01:56:24.698Z,5.00
2023-04-04T01:58:52.288Z,5.95
2023-04-04T02:01:18.912Z,4.47
2023-04-04T02:03:48.593Z,3.35
2023-04-04T02:06:15.232Z,4.07
2023-04-04T02:08:42.129Z,3.67
2023-04-04T02:11:08.639Z,6.75
2023-04-04T02:13:35.462Z,4.28
2023-04-04T02:16:02.042Z,3.47
2023-04-04T02:18:28.604Z,5.10
2023-04-04T02:20:57.519Z,4.03
2023-04-04T02:23:24.068Z,4.18
2023-04-04T02:25:51.416Z,6.82
2023-04-04T02:28:18.583Z,4.45
2023-04-04T02:30:45.571Z,4.05
2023-04-04T02:33:12.122Z,4.47
2023-04-04T02:35:38.694Z,5.47
2023-04-04T02:38:05.404Z,4.10
2023-04-04T02:40:31.922Z,4.70
2023-04-04T02:42:58.523Z,4.20
2023-04-04T02:45:25.060Z,4.25
2023-04-04T02:47:52.526Z,5.03
2023-04-04T02:50:19.230Z,4.20
2023-04-04T02:52:46.289Z,3.42
2023-04-04T02:55:12.825Z,4.43
2023-04-04T02:57:40.347Z,5.22
2023-04-04T03:00:07.794Z,4.70
2023-04-04T03:02:34.530Z,5.70
2023-04-04T03:05:01.314Z,4.72
2023-04-04T03:07:27.879Z,4.68
2023-04-04T03:09:54.441Z,6.25
2023-04-04T03:12:21.924Z,5.75
2023-04-04T03:14:48.606Z,7.05
2023-04-04T03:17:15.440Z,5.60
2023-04-04T03:19:42.149Z,4.93
2023-04-04T03:22:08.738Z,4.38
2023-04-04T03:24:37.202Z,5.60
2023-04-04T03:27:04.243Z,5.18
2023-04-04T03:29:30.794Z,10.18
2023-04-04T03:31:57.335Z,10.57
2023-04-04T03:34:24.873Z,6.05
2023-04-04T03:36:53.526Z,5.53
2023-04-04T03:39:20.233Z,6.63
2023-04-04T03:41:47.069Z,5.35
2023-04-04T03:44:13.596Z,4.68
2023-04-04T03:46:40.165Z,5.00
2023-04-04T03:49:06.930Z,5.85
2023-04-04T03:51:33.455Z,6.03
2023-04-04T03:54:00.058Z,5.50
2023-04-04T03:56:27.419Z,6.25
2023-04-04T03:58:56.508Z,6.60
2023-04-04T04:01:23.344Z,6.20
2023-04-04T04:03:49.959Z,5.35
2023-04-04T04:06:16.996Z,5.57
2023-04-04T04:08:43.527Z,5.47
2023-04-04T04:11:10.121Z,6.03
2023-04-04T04:13:38.750Z,6.13
2023-04-04T04:16:05.570Z,6.50
2023-04-04T04:18:32.758Z,5.78
2023-04-04T04:20:59.682Z,5.22
2023-04-04T04:23:26.262Z,4.47
2023-04-04T04:25:52.832Z,6.05
2023-04-04T04:28:19.813Z,5.40
2023-04-04T04:30:46.530Z,6.40
2023-04-04T04:33:13.220Z,5.97
2023-04-04T04:35:39.958Z,6.03
2023-04-04T04:38:07.287Z,6.05
2023-04-04T04:40:34.797Z,5.68
2023-04-04T04:43:01.370Z,5.75
2023-04-04T04:45:27.952Z,6.78
2023-04-04T04:47:54.865Z,6.80
2023-04-04T04:50:21.480Z,6.70
2023-04-04T04:52:50.518Z,8.35
2023-04-04T04:55:17.722Z,7.10
2023-04-04T04:57:48.202Z,8.00
2023-04-04T05:00:15.220Z,6.55
2023-04-04T05:02:41.806Z,8.82
2023-04-04T05:05:08.486Z,7.10
2023-04-04T05:07:35.135Z,6.40
2023-04-04T05:10:02.242Z,8.57
2023-04-04T05:12:28.859Z,6.65
2023-04-04T05:14:55.447Z,7.00
2023-04-04T05:17:23.452Z,9.27
2023-04-04T05:19:50.126Z,7.53
2023-04-04T05:22:16.655Z,6.70
2023-04-04T05:24:43.247Z,6.97
2023-04-04T05:27:09.876Z,7.90
2023-04-04T05:29:36.456Z,6.53
2023-04-04T05:32:03.122Z,7.10
2023-04-04T05:34:29.904Z,6.80
2023-04-04T05:36:56.593Z,8.13
2023-04-04T05:39:23.094Z,7.85
2023-04-04T05:41:49.658Z,7.63
2023-04-04T05:44:16.286Z,7.50
2023-04-04T05:46:42.803Z,8.77
2023-04-04T05:49:09.371Z,6.20
2023-04-04T05:51:35.924Z,7.70
2023-04-04T05:54:02.445Z,8.93
2023-04-04T05:56:28.947Z,6.55
2023-04-04T05:58:55.696Z,6.82
2023-04-04T06:01:22.244Z,8.63
2023-04-04T06:03:48.849Z,8.10
2023-04-04T06:06:15.874Z,8.45
2023-04-04T06:08:53.095Z,8.13
2023-04-04T06:11:22.459Z,7.47
2023-04-04T06:13:49.312Z,15.15
2023-04-04T06:16:16.010Z,8.98
2023-04-04T06:18:42.584Z,8.93
2023-04-04T06:21:09.090Z,6.72
2023-04-04T06:23:37.653Z,7.80
2023-04-04T06:26:04.447Z,8.88
2023-04-04T06:28:31.289Z,9.13
2023-04-04T06:30:58.045Z,10.75
2023-04-04T06:33:24.777Z,10.18
2023-04-04T06:35:51.454Z,8.43
2023-04-04T06:38:18.001Z,9.75
2023-04-04T06:40:45.279Z,9.60
2023-04-04T06:43:11.948Z,8.38
2023-04-04T06:45:38.517Z,7.65
2023-04-04T06:48:05.395Z,9.68
2023-04-04T06:50:34.953Z,10.85
2023-04-04T06:53:06.098Z,10.30
2023-04-04T06:55:34.309Z,8.73
2023-04-04T06:58:01.196Z,10.38
2023-04-04T07:00:27.708Z,9.27
2023-04-04T07:03:01.285Z,9.43
2023-04-04T07:05:28.397Z,8.77
2023-04-04T07:07:56.807Z,9.20
2023-04-04T07:10:24.744Z,7.93
2023-04-04T07:12:51.748Z,9.90
2023-04-04T07:15:18.361Z,8.57
2023-04-04T07:17:44.963Z,8.90
2023-04-04T07:20:11.927Z,8.77
2023-04-04T07:22:39.734Z,8.10
2023-04-04T07:25:07.413Z,6.55
2023-04-04T07:27:34.169Z,11.07
2023-04-04T07:30:00.686Z,8.82
2023-04-04T07:32:27.323Z,11.70
2023-04-04T07:34:53.857Z,8.13
2023-04-04T07:37:21.602Z,7.35
2023-04-04T07:39:50.013Z,10.82
2023-04-04T07:42:22.860Z,7.90
2023-04-04T07:44:50.623Z,7.45
2023-04-04T07:47:18.198Z,7.80
2023-04-04T07:49:45.154Z,7.13
2023-04-04T07:52:12.019Z,10.80
2023-04-04T07:54:40.223Z,7.57
2023-04-04T07:57:09.574Z,8.18
2023-04-04T07:59:39.168Z,8.75
2023-04-04T08:02:05.764Z,7.35
2023-04-04T08:04:32.319Z,8.07
2023-04-04T08:06:58.919Z,6.80
2023-04-04T08:09:25.688Z,7.95
2023-04-04T08:11:52.792Z,8.40
2023-04-04T08:14:19.389Z,8.40
2023-04-04T08:16:46.163Z,7.95
2023-04-04T08:19:12.954Z,7.55
2023-04-04T08:21:39.687Z,9.75
2023-04-04T08:24:06.510Z,6.88
2023-04-04T08:26:33.063Z,8.25
2023-04-04T08:28:59.889Z,8.40
2023-04-04T08:31:26.749Z,5.45
2023-04-04T08:33:53.345Z,9.13
2023-04-04T08:36:20.028Z,7.38
2023-04-04T08:38:46.581Z,6.63
2023-04-04T08:41:13.590Z,6.05
2023-04-04T08:43:43.731Z,6.57
2023-04-04T08:46:12.834Z,8.60
2023-04-04T08:48:42.601Z,8.95
2023-04-04T08:51:12.276Z,6.43
2023-04-04T08:53:39.497Z,7.03
2023-04-04T08:56:06.345Z,6.45
2023-04-04T08:58:33.249Z,7.15
2023-04-04T09:01:00.231Z,6.80
2023-04-04T09:03:31.062Z,6.18
2023-04-04T09:05:58.253Z,5.47
2023-04-04T09:08:25.153Z,6.68
2023-04-04T09:10:52.708Z,6.45
2023-04-04T09:13:19.544Z,11.80
2023-04-04T09:15:49.116Z,9.68
2023-04-04T09:18:16.574Z,5.07
2023-04-04T09:20:44.934Z,5.70
2023-04-04T09:23:20.509Z,5.22
2023-04-04T09:28:26.084Z,6.90
2023-04-04T09:30:52.930Z,4.90
2023-04-04T09:33:22.005Z,5.50
2023-04-04T09:35:55.941Z,5.70
2023-04-04T09:38:24.081Z,5.05
2023-04-04T09:40:52.597Z,6.18
2023-04-04T09:43:22.342Z,5.80
2023-04-04T09:45:49.861Z,5.03
2023-04-04T09:48:27.474Z,7.43
2023-04-04T09:50:54.352Z,6.50
2023-04-04T09:53:20.897Z,5.60
2023-04-04T09:55:52.162Z,5.68
2023-04-04T09:58:24.292Z,4.95
2023-04-04T10:00:53.817Z,6.45
2023-04-04T10:03:23.133Z,5.35
2023-04-04T10:06:07.262Z,4.95
2023-04-04T10:08:35.339Z,5.03
2023-04-04T10:13:43.881Z,4.25
2023-04-04T10:16:11.669Z,4.25
2023-04-04T10:18:39.474Z,5.32
2023-04-04T10:23:38.882Z,5.80
2023-04-04T10:26:06.058Z,4.63
2023-04-04T10:28:34.419Z,3.35
2023-04-04T10:31:24.435Z,4.03
2023-04-04T10:34:09.196Z,4.60
2023-04-04T10:36:59.150Z,5.60
2023-04-04T10:39:40.622Z,4.00
2023-04-04T10:42:07.903Z,3.92
2023-04-04T10:44:40.659Z,5.50
2023-04-04T10:47:23.534Z,5.13
2023-04-04T10:49:51.572Z,4.10
2023-04-04T10:52:23.694Z,4.82
2023-04-04T10:54:52.366Z,4.68
2023-04-04T10:57:19.324Z,4.40
2023-04-04T11:00:09.459Z,5.07
2023-04-04T11:02:55.718Z,6.10
2023-04-04T11:08:07.622Z,7.82
2023-04-04T11:10:41.386Z,8.93
2023-04-04T11:13:17.162Z,5.65
2023-04-04T11:16:00.927Z,4.47
2023-04-04T11:18:40.251Z,6.10
2023-04-04T11:21:08.763Z,9.57
2023-04-04T11:23:58.312Z,6.93
2023-04-04T11:26:27.978Z,6.45
2023-04-04T11:29:05.167Z,4.97
2023-04-04T11:31:40.410Z,4.90
2023-04-04T11:34:09.388Z,7.47
2023-04-04T11:36:36.068Z,6.63
2023-04-04T11:39:21.080Z,4.18
2023-04-04T11:42:10.432Z,4.88
2023-04-04T11:45:03.599Z,5.70
2023-04-04T11:47:31.524Z,6.78
2023-04-04T11:50:00.850Z,7.43
2023-04-04T11:52:34.360Z,8.88
2023-04-04T11:55:01.163Z,6.90
2023-04-04T11:57:28.162Z,8.90
2023-04-04T11:59:54.897Z,9.27
2023-04-04T12:02:31.654Z,7.93
2023-04-04T12:04:59.725Z,7.13
2023-04-04T12:07:28.577Z,6.38
2023-04-04T12:09:57.721Z,5.57
2023-04-04T12:12:24.464Z,6.85
2023-04-04T12:14:51.086Z,5.78
2023-04-04T12:17:17.806Z,12.98
2023-04-04T12:19:44.741Z,6.65
2023-04-04T12:22:11.703Z,6.45
2023-04-04T12:24:38.335Z,5.32
2023-04-04T12:27:06.113Z,7.55
2023-04-04T12:29:37.594Z,5.78
2023-04-04T12:32:05.912Z,6.38
2023-04-04T12:34:33.656Z,7.45
2023-04-04T12:37:01.812Z,5.30
2023-04-04T12:39:29.498Z,5.93
2023-04-04T12:42:01.320Z,8.27
2023-04-04T12:44:30.731Z,5.13
2023-04-04T12:47:03.324Z,6.10
2023-04-04T12:49:40.960Z,5.38
2023-04-04T12:52:16.510Z,5.40
2023-04-04T12:54:43.544Z,6.88
2023-04-04T12:57:12.504Z,6.45
2023-04-04T12:59:40.021Z,7.75
2023-04-04T13:02:13.260Z,6.47
2023-04-04T13:04:40.554Z,5.18
2023-04-04T13:07:29.761Z,5.78
2023-04-04T13:10:02.826Z,6.50
2023-04-04T13:12:53.792Z,4.55
2023-04-04T13:15:20.676Z,6.30
2023-04-04T13:17:49.050Z,5.75
2023-04-04T13:20:18.738Z,6.20
2023-04-04T13:22:45.612Z,5.25
2023-04-04T13:25:12.201Z,5.10
2023-04-04T13:27:38.806Z,5.40
2023-04-04T13:30:09.155Z,5.78
2023-04-04T13:32:36.742Z,6.22
2023-04-04T13:35:03.338Z,5.38
2023-04-04T13:37:29.859Z,5.03
2023-04-04T13:39:56.373Z,6.40
2023-04-04T13:42:26.987Z,4.10
2023-04-04T13:44:53.551Z,5.55
2023-04-04T13:47:22.632Z,6.72
2023-04-04T13:49:49.132Z,6.22
2023-04-04T13:52:15.852Z,5.60
2023-04-04T13:54:42.488Z,8.48
2023-04-04T13:57:09.030Z,6.90
2023-04-04T13:59:35.702Z,5.80
2023-04-04T14:02:03.443Z,6.30
2023-04-04T14:04:30.053Z,5.90
2023-04-04T14:06:56.653Z,5.45
2023-04-04T14:09:23.510Z,5.05
2023-04-04T14:11:50.042Z,8.52
2023-04-04T14:14:16.938Z,24.52
2023-04-04T14:16:43.790Z,7.53
2023-04-04T14:19:10.577Z,6.40
2023-04-04T14:21:37.094Z,6.97
2023-04-04T14:24:03.933Z,7.38
2023-04-04T14:26:30.755Z,6.05
2023-04-04T14:28:57.817Z,5.95
2023-04-04T14:31:24.502Z,6.85
2023-04-04T14:33:51.048Z,6.60
2023-04-04T14:36:19.047Z,7.70
2023-04-04T14:38:45.578Z,6.93
2023-04-04T14:41:13.452Z,7.28
2023-04-04T14:43:40.280Z,6.90
2023-04-04T14:46:07.459Z,8.68
2023-04-04T14:48:34.292Z,8.77
2023-04-04T14:51:01.134Z,8.40
2023-04-04T14:53:27.809Z,6.45
2023-04-04T14:55:54.330Z,7.47
2023-04-04T14:58:20.979Z,7.97
2023-04-04T15:00:48.190Z,7.13
2023-04-04T15:03:15.061Z,8.63
2023-04-04T15:05:42.435Z,8.15
2023-04-04T15:08:09.173Z,7.80
2023-04-04T15:10:35.713Z,7.28
2023-04-04T15:13:02.253Z,8.32
2023-04-04T15:15:29.248Z,9.18
2023-04-04T15:17:55.856Z,8.15
2023-04-04T15:20:22.549Z,10.07
2023-04-04T15:22:49.079Z,17.95
2023-04-04T15:25:15.586Z,7.28
2023-04-04T15:27:42.103Z,7.45
2023-04-04T15:30:09.144Z,8.43
2023-04-04T15:32:35.884Z,7.47
2023-04-04T15:35:04.401Z,8.27
2023-04-04T15:37:31.135Z,8.32
2023-04-04T15:39:57.710Z,8.90
2023-04-04T15:42:25.871Z,9.20
2023-04-04T15:44:52.428Z,7.95
2023-04-04T15:47:18.948Z,6.22
2023-04-04T15:49:45.569Z,7.20
2023-04-04T15:52:12.477Z,7.35
2023-04-04T15:54:38.980Z,6.53
2023-04-04T15:57:05.485Z,7.63
2023-04-04T15:59:32.347Z,6.85
2023-04-04T16:01:59.126Z,7.00
2023-04-04T16:04:25.938Z,6.80
2023-04-04T16:06:52.488Z,6.72
2023-04-04T16:09:19.800Z,6.75
2023-04-04T16:11:46.458Z,8.00
2023-04-04T16:14:14.604Z,7.10
2023-04-04T16:16:41.318Z,6.05
2023-04-04T16:19:07.878Z,5.97
2023-04-04T16:21:34.671Z,6.85
2023-04-04T16:24:03.458Z,6.68
2023-04-04T16:26:30.029Z,5.82
2023-04-04T16:28:56.588Z,5.10
2023-04-04T16:31:23.216Z,7.93
2023-04-04T16:33:49.854Z,7.38
2023-04-04T16:36:16.435Z,7.45
2023-04-04T16:38:42.973Z,5.63
2023-04-04T16:41:09.485Z,7.10
2023-04-04T16:43:36.370Z,7.82
2023-04-04T16:46:02.943Z,7.82
2023-04-04T16:48:29.503Z,6.93
2023-04-04T16:50:56.424Z,6.43
2023-04-04T16:53:22.960Z,6.82
2023-04-04T16:55:49.465Z,8.77
2023-04-04T16:58:16.262Z,8.23
2023-04-04T17:00:43.434Z,6.10
2023-04-04T17:03:10.568Z,8.60
2023-04-04T17:05:37.178Z,7.30
2023-04-04T17:08:03.729Z,9.02
2023-04-04T17:10:31.222Z,10.73
2023-04-04T17:12:58.265Z,8.13
2023-04-04T17:15:24.867Z,13.23
2023-04-04T17:17:52.170Z,8.52
2023-04-04T17:20:19.178Z,9.80
2023-04-04T17:22:47.285Z,8.50
2023-04-04T17:25:13.869Z,9.63
2023-04-04T17:27:40.603Z,10.20
2023-04-04T17:30:08.437Z,9.25
2023-04-04T17:32:35.023Z,9.18
2023-04-04T17:35:01.829Z,8.88
2023-04-04T17:37:29.108Z,9.20
2023-04-04T17:39:55.733Z,8.23
2023-04-04T17:42:22.324Z,7.90
2023-04-04T17:44:48.931Z,9.77
2023-04-04T17:47:16.089Z,8.63
2023-04-04T17:49:42.700Z,12.27
2023-04-04T17:52:09.277Z,10.25
2023-04-04T17:54:36.419Z,10.80
2023-04-04T17:57:03.554Z,10.27
2023-04-04T17:59:30.169Z,9.77
2023-04-04T18:01:56.946Z,11.25
2023-04-04T18:04:25.462Z,13.70
2023-04-04T18:06:52.328Z,11.23
2023-04-04T18:09:18.919Z,12.88
2023-04-04T18:11:45.726Z,13.57
2023-04-04T18:14:12.293Z,11.45
2023-04-04T18:16:41.036Z,14.40
2023-04-04T18:19:09.576Z,11.52
2023-04-04T18:21:36.985Z,11.98
2023-04-04T18:24:05.296Z,12.57
2023-04-04T18:26:32.131Z,11.85
2023-04-04T18:28:58.888Z,11.18
2023-04-04T18:31:28.612Z,11.65
2023-04-04T18:33:55.810Z,11.30
2023-04-04T18:36:22.511Z,11.30
2023-04-04T18:38:49.542Z,10.02
2023-04-04T18:41:17.440Z,9.95
2023-04-04T18:43:44.230Z,10.90
2023-04-04T18:46:10.807Z,12.07
2023-04-04T18:48:37.567Z,8.55
2023-04-04T18:51:04.441Z,9.68
2023-04-04T18:53:31.168Z,14.02
2023-04-04T18:55:58.352Z,9.90
2023-04-04T18:58:26.092Z,11.50
2023-04-04T19:00:54.345Z,12.43
2023-04-04T19:03:22.379Z,10.38
2023-04-04T19:05:49.624Z,11.13
2023-04-04T19:08:17.431Z,8.90
2023-04-04T19:10:47.370Z,8.18
2023-04-04T19:13:15.219Z,8.55
2023-04-04T19:15:43.136Z,9.55
2023-04-04T19:18:10.365Z,10.80
2023-04-04T19:20:37.063Z,8.68
2023-04-04T19:23:03.758Z,9.85
2023-04-04T19:25:30.544Z,8.68
2023-04-04T19:27:58.542Z,8.05
2023-04-04T19:30:40.432Z,7.32
2023-04-04T19:33:15.425Z,7.60
2023-04-04T19:35:55.952Z,7.40
2023-04-04T19:38:28.131Z,8.13
2023-04-04T19:41:03.352Z,8.95
2023-04-04T19:43:30.925Z,7.93
2023-04-04T19:45:59.454Z,8.15
2023-04-04T19:48:43.913Z,8.07
2023-04-04T19:51:12.172Z,8.27
2023-04-04T19:53:38.750Z,7.45
2023-04-04T19:56:10.116Z,8.55
2023-04-04T19:58:37.163Z,8.98
2023-04-04T20:01:05.399Z,8.25
2023-04-04T20:03:37.180Z,10.35
2023-04-04T20:06:06.459Z,8.55
2023-04-04T20:08:43.863Z,8.20
2023-04-04T20:11:12.569Z,9.48
2023-04-04T20:13:40.339Z,7.65
2023-04-04T20:16:09.183Z,7.35
2023-04-04T20:18:37.192Z,8.38
2023-04-04T20:21:09.636Z,8.55
2023-04-04T20:23:42.550Z,8.02
2023-04-04T20:26:10.754Z,7.97
2023-04-04T20:28:37.332Z,8.10
2023-04-04T20:31:12.063Z,6.38
2023-04-04T20:33:40.604Z,7.13
2023-04-04T20:36:13.616Z,8.27
2023-04-04T20:38:41.591Z,7.93
2023-04-04T20:41:19.686Z,7.88
2023-04-04T20:43:51.630Z,7.93
2023-04-04T20:46:23.012Z,7.05
2023-04-04T20:48:51.085Z,7.22
2023-04-04T20:51:24.833Z,7.53
2023-04-04T20:53:52.786Z,6.80
2023-04-04T20:56:58.022Z,9.48
2023-04-04T20:59:36.664Z,7.82
2023-04-04T21:02:16.661Z,8.40
2023-04-04T21:04:45.701Z,6.78
2023-04-04T21:07:34.753Z,6.50
2023-04-04T21:10:01.524Z,6.30
2023-04-04T21:12:28.098Z,8.60
2023-04-04T21:14:54.701Z,8.15
2023-04-04T21:17:21.378Z,6.30
2023-04-04T21:19:47.924Z,6.05
2023-04-04T21:22:16.949Z,7.55
2023-04-04T21:24:43.524Z,6.53
2023-04-04T21:27:33.550Z,7.63
2023-04-04T21:30:00.147Z,7.70
2023-04-04T21:32:26.751Z,7.93
2023-04-04T21:34:53.389Z,6.93
2023-04-04T21:37:21.432Z,5.45
2023-04-04T21:39:49.946Z,7.13
2023-04-04T21:42:16.940Z,7.53
2023-04-04T21:44:43.458Z,6.97
2023-04-04T21:47:09.998Z,7.50
2023-04-04T21:49:36.625Z,6.40
2023-04-04T21:52:03.129Z,5.60
2023-04-04T21:54:29.652Z,6.38
2023-04-04T21:56:56.315Z,5.72
2023-04-04T21:59:22.876Z,6.13
2023-04-04T22:01:50.575Z,6.72
2023-04-04T22:04:17.212Z,6.25
2023-04-04T22:06:43.915Z,6.05
2023-04-04T22:09:10.698Z,5.72
2023-04-04T22:11:42.683Z,6.93
2023-04-04T22:14:09.195Z,5.90
2023-04-04T22:16:42.933Z,5.90
2023-04-04T22:19:11.243Z,5.13
2023-04-04T22:21:37.939Z,6.45
2023-04-04T22:24:05.632Z,7.40
2023-04-04T22:26:33.178Z,5.25
2023-04-04T22:29:05.233Z,5.65
2023-04-04T22:31:34.615Z,6.70
2023-04-04T22:34:03.198Z,6.25
2023-04-04T22:36:30.165Z,5.60
2023-04-04T22:38:57.357Z,5.00
2023-04-04T22:41:29.325Z,6.15
2023-04-04T22:43:56.884Z,6.05
2023-04-04T22:46:25.668Z,5.90
2023-04-04T22:49:04.632Z,4.93
2023-04-04T22:51:35.187Z,5.15
2023-04-04T22:54:15.607Z,5.53
2023-04-04T22:56:42.289Z,5.68
2023-04-04T22:59:08.894Z,5.05
2023-04-04T23:01:35.635Z,5.72
2023-04-04T23:04:02.392Z,6.60
2023-04-04T23:06:29.665Z,5.30
2023-04-04T23:08:56.445Z,3.90
2023-04-04T23:11:23.422Z,4.63
2023-04-04T23:13:50.068Z,5.00
2023-04-04T23:16:16.686Z,5.15
2023-04-04T23:18:43.251Z,4.72
2023-04-04T23:21:09.807Z,4.60
2023-04-04T23:23:36.623Z,4.57
2023-04-04T23:26:03.213Z,4.88
2023-04-04T23:28:29.880Z,4.90
2023-04-04T23:30:56.652Z,5.22
2023-04-04T23:33:23.330Z,4.72
2023-04-04T23:35:49.960Z,4.13
2023-04-04T23:38:16.565Z,5.20
2023-04-04T23:40:43.381Z,4.43
2023-04-04T23:43:10.037Z,4.50
2023-04-04T23:45:39.614Z,4.00
2023-04-04T23:48:06.420Z,4.75
2023-04-04T23:50:33.074Z,4.50
2023-04-04T23:52:59.645Z,4.15
2023-04-04T23:55:27.134Z,3.67
2023-04-04T23:57:56.200Z,4.00
